Time;durP1;ratioP1;P1;durP2;ratioP2;P2;SDS_P1;SDS_P2;PMS_P1;PMS_P2;Temp;Humidity;BMP_temperature;BMP_pressure;BME280_temperature;BME280_humidity;BME280_pressure;Samples;Min_cycle;Max_cycle;Signal;HPM_P1;HPM_P2
2022/04/12 00:00:09;;;;;;;31.42;12.23;;;26.90;90.60;;;;;;5148584;27;20035;-54
2022/04/12 00:02:36;;;;;;;30.27;11.27;;;26.90;90.50;;;;;;5148744;27;20031;-54
2022/04/12 00:05:02;;;;;;;30.92;11.13;;;26.90;90.50;;;;;;5148647;27;20027;-54
2022/04/12 00:07:31;;;;;;;29.65;10.90;;;26.90;90.30;;;;;;5148303;27;20082;-53
2022/04/12 00:09:58;;;;;;;28.42;10.95;;;26.90;90.10;;;;;;5148462;27;20031;-54
2022/04/12 00:12:25;;;;;;;21.27;11.18;;;26.90;90.30;;;;;;5148698;27;20019;-53
2022/04/12 00:14:52;;;;;;;22.88;10.88;;;26.90;90.20;;;;;;5148381;27;20056;-55
2022/04/12 00:20:04;;;;;;;18.58;10.52;;;26.90;90.10;;;;;;5148197;27;20055;-56
2022/04/12 00:22:31;;;;;;;21.92;10.23;;;26.90;90.20;;;;;;5148541;27;20300;-55
2022/04/12 00:25:00;;;;;;;16.13;10.75;;;26.90;90.30;;;;;;5148363;27;20086;-53
2022/04/12 00:27:27;;;;;;;15.52;10.60;;;26.90;90.30;;;;;;5147772;27;20234;-54
2022/04/12 00:29:55;;;;;;;20.60;12.73;;;26.90;90.20;;;;;;5148008;27;20366;-55
2022/04/12 00:32:22;;;;;;;18.67;10.95;;;26.80;90.10;;;;;;5148186;27;20064;-53
2022/04/12 00:34:48;;;;;;;12.77;10.25;;;26.80;90.10;;;;;;5147786;27;20207;-56
2022/04/12 00:37:15;;;;;;;14.57;10.50;;;26.80;90.20;;;;;;5148195;27;20076;-56
2022/04/12 00:39:42;;;;;;;15.20;10.27;;;26.80;90.10;;;;;;5147903;27;20023;-57
2022/04/12 00:42:08;;;;;;;13.95;9.65;;;26.80;90.10;;;;;;5147987;27;20023;-57
2022/04/12 00:44:35;;;;;;;11.75;9.93;;;26.90;90.00;;;;;;5147982;27;20039;-53
2022/04/12 00:47:02;;;;;;;13.45;9.73;;;26.80;90.00;;;;;;5147894;27;20038;-55
2022/04/12 00:49:30;;;;;;;13.35;9.57;;;26.80;89.80;;;;;;5147556;27;20060;-55
2022/04/12 00:51:57;;;;;;;18.38;10.15;;;26.80;90.00;;;;;;5147635;27;20292;-53
2022/04/12 00:54:25;;;;;;;17.25;10.40;;;26.80;90.00;;;;;;5147470;27;20087;-54
2022/04/12 00:56:52;;;;;;;15.23;9.85;;;26.80;90.00;;;;;;5147443;27;20090;-56
2022/04/12 00:59:20;;;;;;;14.18;9.82;;;26.80;89.90;;;;;;5147550;27;20311;-53
2022/04/12 01:01:47;;;;;;;16.27;9.70;;;26.80;90.00;;;;;;5147483;27;20127;-56
2022/04/12 01:04:15;;;;;;;14.02;10.18;;;26.80;90.00;;;;;;5147296;27;20354;-53
2022/04/12 01:06:42;;;;;;;15.45;10.10;;;26.80;90.00;;;;;;5147677;27;20207;-59
2022/04/12 01:09:09;;;;;;;13.43;10.27;;;26.80;90.00;;;;;;5147573;27;20023;-56
2022/04/12 01:11:37;;;;;;;20.40;11.15;;;26.80;90.10;;;;;;5147139;27;20120;-56
2022/04/12 01:14:04;;;;;;;13.20;10.32;;;26.70;89.90;;;;;;5147089;27;20027;-58
2022/04/12 01:16:30;;;;;;;17.10;10.48;;;26.80;90.00;;;;;;5147107;27;20019;-58
2022/04/12 01:18:57;;;;;;;17.17;10.80;;;26.80;89.70;;;;;;5147067;27;20030;-54
2022/04/12 01:21:24;;;;;;;14.25;10.15;;;26.80;89.50;;;;;;5147127;27;20046;-55
2022/04/12 01:23:56;;;;;;;18.25;10.88;;;26.80;89.20;;;;;;5147303;27;20023;-53
2022/04/12 01:26:23;;;;;;;17.67;10.43;;;26.80;88.80;;;;;;5146918;27;20019;-54
2022/04/12 01:28:49;;;;;;;13.43;10.13;;;26.80;88.50;;;;;;5147080;27;20030;-54
2022/04/12 01:31:16;;;;;;;16.23;10.35;;;26.80;88.60;;;;;;5146777;27;20018;-60
2022/04/12 01:33:42;;;;;;;16.02;10.23;;;26.80;88.40;;;;;;5146863;27;20019;-55
2022/04/12 01:36:09;;;;;;;15.65;10.35;;;26.70;88.10;;;;;;5146775;27;20102;-56
2022/04/12 01:38:36;;;;;;;14.75;10.32;;;26.70;88.20;;;;;;5147257;27;20043;-56
2022/04/12 01:41:02;;;;;;;13.48;9.77;;;26.70;87.90;;;;;;5146580;27;20252;-54
2022/04/12 01:43:30;;;;;;;15.98;10.05;;;26.80;88.10;;;;;;5147219;27;20229;-56
2022/04/12 01:45:56;;;;;;;15.80;10.35;;;26.70;88.00;;;;;;5146741;27;20060;-53
2022/04/12 01:48:24;;;;;;;16.23;10.10;;;26.70;87.70;;;;;;5146964;27;20022;-63
2022/04/12 01:50:51;;;;;;;17.02;9.95;;;26.80;87.60;;;;;;5146592;27;20035;-57
2022/04/12 01:53:17;;;;;;;14.45;10.00;;;26.70;87.20;;;;;;5146357;27;20231;-54
2022/04/12 01:55:44;;;;;;;13.65;9.82;;;26.70;87.10;;;;;;5146417;27;20136;-52
2022/04/12 01:58:11;;;;;;;13.32;9.73;;;26.70;86.90;;;;;;5146931;27;20033;-57
2022/04/12 02:00:37;;;;;;;15.27;10.20;;;26.70;87.20;;;;;;5146159;27;20090;-57
2022/04/12 02:03:06;;;;;;;13.93;10.32;;;26.70;87.20;;;;;;5145836;27;20024;-55
2022/04/12 02:05:33;;;;;;;14.25;10.13;;;26.70;87.10;;;;;;5146256;27;20075;-53
2022/04/12 02:07:59;;;;;;;19.83;10.45;;;26.70;86.50;;;;;;5146004;27;20026;-55
2022/04/12 02:10:26;;;;;;;11.27;9.57;;;26.70;86.80;;;;;;5146119;27;20061;-55
2022/04/12 02:12:54;;;;;;;16.25;10.18;;;26.70;86.20;;;;;;5146521;27;20051;-57
2022/04/12 02:15:21;;;;;;;15.85;10.13;;;26.70;86.10;;;;;;5145941;27;20090;-54
2022/04/12 02:17:48;;;;;;;18.10;9.63;;;26.70;86.70;;;;;;5145870;27;20031;-55
2022/04/12 02:20:14;;;;;;;13.70;10.15;;;26.70;86.40;;;;;;5145810;27;20065;-58
2022/04/12 02:22:41;;;;;;;14.43;10.20;;;26.70;86.20;;;;;;5146336;27;20086;-54
2022/04/12 02:25:08;;;;;;;16.27;9.88;;;26.70;86.00;;;;;;5146289;27;20030;-55
2022/04/12 02:27:34;;;;;;;17.55;9.98;;;26.70;86.30;;;;;;5145964;27;20452;-53
2022/04/12 02:30:01;;;;;;;16.67;10.20;;;26.70;86.10;;;;;;5145978;27;20023;-54
2022/04/12 02:32:28;;;;;;;14.80;10.05;;;26.70;86.20;;;;;;5146048;27;20019;-55
2022/04/12 02:34:57;;;;;;;15.73;10.13;;;26.70;86.20;;;;;;5145510;27;20379;-54
2022/04/12 02:37:24;;;;;;;13.75;10.00;;;26.70;86.40;;;;;;5145407;27;20023;-57
2022/04/12 02:39:51;;;;;;;17.20;10.30;;;26.70;86.60;;;;;;5145860;27;20116;-56
2022/04/12 02:42:17;;;;;;;17.02;10.38;;;26.70;86.60;;;;;;5145551;27;20095;-55
2022/04/12 02:44:44;;;;;;;13.02;10.65;;;26.70;86.60;;;;;;5145562;27;20030;-60
2022/04/12 02:47:11;;;;;;;15.35;10.35;;;26.70;87.00;;;;;;5145676;27;20025;-57
2022/04/12 02:49:37;;;;;;;16.02;10.88;;;26.70;87.10;;;;;;5145261;27;20035;-56
2022/04/12 02:52:04;;;;;;;14.65;9.98;;;26.70;87.10;;;;;;5145650;27;20023;-53
2022/04/12 02:54:32;;;;;;;18.27;10.52;;;26.70;87.10;;;;;;5145270;27;20096;-52
2022/04/12 02:56:59;;;;;;;15.38;10.30;;;26.60;86.80;;;;;;5145367;27;20019;-58
2022/04/12 02:59:25;;;;;;;15.88;10.60;;;26.70;86.70;;;;;;5145356;27;20054;-53
2022/04/12 03:01:52;;;;;;;17.80;10.52;;;26.60;86.80;;;;;;5145471;27;20023;-59
2022/04/12 03:04:19;;;;;;;15.40;10.45;;;26.60;86.80;;;;;;5145002;27;20039;-57
2022/04/12 03:06:45;;;;;;;13.65;10.52;;;26.60;86.90;;;;;;5145042;27;20021;-53
2022/04/12 03:09:13;;;;;;;17.25;10.10;;;26.60;86.90;;;;;;5145156;27;20335;-54
2022/04/12 03:11:40;;;;;;;12.85;10.70;;;26.60;86.50;;;;;;5145192;27;20023;-58
2022/04/12 03:14:08;;;;;;;17.10;10.63;;;26.60;86.80;;;;;;5145006;27;20030;-58
2022/04/12 03:16:35;;;;;;;13.82;11.13;;;26.60;86.80;;;;;;5144981;27;20024;-56
2022/04/12 03:19:01;;;;;;;15.57;11.55;;;26.60;86.70;;;;;;5144895;27;20054;-54
2022/04/12 03:21:28;;;;;;;12.68;11.38;;;26.60;86.60;;;;;;5144994;28;20048;-53
2022/04/12 03:23:55;;;;;;;15.40;11.32;;;26.60;86.70;;;;;;5145017;28;20026;-55
2022/04/12 03:26:21;;;;;;;18.20;11.32;;;26.60;87.00;;;;;;5144810;28;20068;-55
2022/04/12 03:28:48;;;;;;;19.05;10.77;;;26.60;87.00;;;;;;5145137;28;20035;-53
2022/04/12 03:31:14;;;;;;;14.95;10.73;;;26.60;86.90;;;;;;5144743;28;20026;-53
2022/04/12 03:33:41;;;;;;;17.83;10.57;;;26.60;86.70;;;;;;5144789;28;20031;-52
2022/04/12 03:36:07;;;;;;;16.05;10.40;;;26.60;86.70;;;;;;5144783;28;20307;-53
2022/04/12 03:38:40;;;;;;;15.13;10.80;;;26.60;86.70;;;;;;5145153;28;20023;-56
2022/04/12 03:41:06;;;;;;;16.52;10.82;;;26.60;86.80;;;;;;5144600;28;20081;-53
2022/04/12 03:43:33;;;;;;;16.27;10.82;;;26.60;86.90;;;;;;5145348;28;20050;-54
2022/04/12 03:46:00;;;;;;;14.82;10.13;;;26.60;86.70;;;;;;5144830;28;20068;-53
2022/04/12 03:48:26;;;;;;;14.52;10.13;;;26.60;87.30;;;;;;5145083;28;20031;-54
2022/04/12 03:50:53;;;;;;;13.73;9.77;;;26.60;86.50;;;;;;5144778;28;20030;-57
2022/04/12 03:53:20;;;;;;;17.13;10.60;;;26.60;86.50;;;;;;5144523;28;20051;-53
2022/04/12 03:55:46;;;;;;;16.20;10.02;;;26.60;86.60;;;;;;5144611;28;20051;-57
2022/04/12 03:58:19;;;;;;;15.77;10.70;;;26.60;86.60;;;;;;5145139;28;20065;-57
2022/04/12 04:00:46;;;;;;;16.38;10.73;;;26.60;86.60;;;;;;5144674;28;20035;-54
2022/04/12 04:03:13;;;;;;;14.48;10.40;;;26.60;86.80;;;;;;5144964;28;20080;-57
2022/04/12 04:05:39;;;;;;;15.93;10.55;;;26.60;86.50;;;;;;5144629;28;20056;-54
2022/04/12 04:08:06;;;;;;;14.52;10.05;;;26.60;86.50;;;;;;5144858;28;20020;-53
2022/04/12 04:10:33;;;;;;;14.77;10.32;;;26.60;86.30;;;;;;5144482;28;20024;-57
2022/04/12 04:13:01;;;;;;;14.45;9.98;;;26.60;86.20;;;;;;5144810;28;20023;-54
2022/04/12 04:15:28;;;;;;;14.35;10.40;;;26.60;85.80;;;;;;5144691;28;20019;-53
2022/04/12 04:17:54;;;;;;;16.58;10.38;;;26.60;85.90;;;;;;5144786;28;20011;-53
2022/04/12 04:20:21;;;;;;;14.30;9.63;;;26.60;85.30;;;;;;5144342;28;20284;-54
2022/04/12 04:22:47;;;;;;;13.60;10.50;;;26.60;85.60;;;;;;5144692;28;20030;-52
2022/04/12 04:25:15;;;;;;;13.15;9.82;;;26.60;85.50;;;;;;5144430;27;20022;-55
2022/04/12 04:27:43;;;;;;;12.65;10.00;;;26.60;85.90;;;;;;5148375;27;20027;-53
2022/04/12 04:30:11;;;;;;;15.48;10.27;;;26.60;85.70;;;;;;5148074;27;20030;-56
2022/04/12 04:32:38;;;;;;;13.68;10.00;;;26.60;85.50;;;;;;5148193;27;20015;-57
2022/04/12 04:35:06;;;;;;;13.80;9.70;;;26.60;85.70;;;;;;5148058;27;20297;-54
2022/04/12 04:37:40;;;;;;;14.18;9.73;;;26.60;85.60;;;;;;5148208;27;20300;-53
2022/04/12 04:40:07;;;;;;;16.65;9.93;;;26.60;85.40;;;;;;5147830;27;20030;-55
2022/04/12 04:42:34;;;;;;;16.00;10.50;;;26.60;85.70;;;;;;5148132;27;20048;-52
2022/04/12 04:45:01;;;;;;;16.83;10.32;;;26.60;85.60;;;;;;5147914;27;20027;-57
2022/04/12 04:47:27;;;;;;;17.50;10.23;;;26.60;86.00;;;;;;5147901;27;20086;-56
2022/04/12 04:49:54;;;;;;;13.25;9.55;;;26.60;86.10;;;;;;5147621;27;20031;-54
2022/04/12 04:52:23;;;;;;;12.30;10.10;;;26.60;86.10;;;;;;5148178;27;20086;-52
2022/04/12 04:54:49;;;;;;;13.88;9.85;;;26.60;86.20;;;;;;5147359;27;20106;-52
2022/04/12 04:57:18;;;;;;;13.15;10.02;;;26.50;85.80;;;;;;5147697;27;20227;-53
2022/04/12 04:59:45;;;;;;;12.35;9.48;;;26.50;85.70;;;;;;5147629;27;20015;-54
2022/04/12 05:02:11;;;;;;;11.65;9.63;;;26.50;85.70;;;;;;5147481;27;20027;-55
2022/04/12 05:04:38;;;;;;;12.43;9.57;;;26.50;85.80;;;;;;5147534;27;20072;-52
2022/04/12 05:07:04;;;;;;;12.35;9.77;;;26.50;85.60;;;;;;5147483;27;20238;-56
2022/04/12 05:09:31;;;;;;;13.52;9.80;;;26.50;85.80;;;;;;5147266;27;20098;-54
2022/04/12 05:11:57;;;;;;;14.27;9.88;;;26.50;85.80;;;;;;5147410;27;20023;-56
2022/04/12 05:14:24;;;;;;;13.30;9.90;;;26.50;85.80;;;;;;5147361;27;20074;-54
2022/04/12 05:16:52;;;;;;;15.65;10.13;;;26.40;85.40;;;;;;5147143;27;20307;-55
2022/04/12 05:19:19;;;;;;;12.70;10.18;;;26.50;85.40;;;;;;5147165;27;20027;-56
2022/04/12 05:21:45;;;;;;;14.52;9.77;;;26.40;85.50;;;;;;5147167;27;20068;-54
2022/04/12 05:24:12;;;;;;;17.60;10.70;;;26.40;85.70;;;;;;5147115;27;20031;-55
2022/04/12 05:26:38;;;;;;;15.93;10.60;;;26.40;85.90;;;;;;5147150;27;20207;-57
2022/04/12 05:29:05;;;;;;;12.85;9.60;;;26.40;85.90;;;;;;5146884;27;20084;-54
2022/04/12 05:31:32;;;;;;;14.02;9.93;;;26.40;86.10;;;;;;5146750;27;20027;-53
2022/04/12 05:33:58;;;;;;;16.33;10.30;;;26.40;86.00;;;;;;5146979;27;20023;-55
2022/04/12 05:36:25;;;;;;;12.20;9.77;;;26.30;86.10;;;;;;5146810;27;20063;-55
2022/04/12 05:38:51;;;;;;;15.15;10.43;;;26.30;86.30;;;;;;5145572;27;20023;-56
2022/04/12 05:41:18;;;;;;;15.82;10.52;;;26.30;86.20;;;;;;5146854;27;20027;-55
2022/04/12 05:43:44;;;;;;;12.45;9.77;;;26.30;86.40;;;;;;5146774;27;20023;-55
2022/04/12 05:46:11;;;;;;;15.35;10.63;;;26.30;86.40;;;;;;5146495;27;20069;-57
2022/04/12 05:48:38;;;;;;;13.30;10.27;;;26.30;86.20;;;;;;5146717;27;20312;-56
2022/04/12 05:51:04;;;;;;;14.65;9.60;;;26.30;86.30;;;;;;5146483;27;20021;-57
2022/04/12 05:53:31;;;;;;;14.52;10.45;;;26.30;85.90;;;;;;5146479;27;20209;-53
2022/04/12 05:55:57;;;;;;;16.17;11.30;;;26.30;85.80;;;;;;5146412;27;20023;-54
2022/04/12 05:58:25;;;;;;;17.33;10.68;;;26.30;86.30;;;;;;5146910;27;20023;-53
2022/04/12 06:00:51;;;;;;;14.48;11.10;;;26.30;85.80;;;;;;5146363;27;20316;-53
2022/04/12 06:03:18;;;;;;;12.90;9.68;;;26.30;86.30;;;;;;5146600;27;20115;-53
2022/04/12 06:05:44;;;;;;;13.77;10.35;;;26.30;85.80;;;;;;5146342;27;20046;-55
2022/04/12 06:08:11;;;;;;;13.05;9.60;;;26.30;85.60;;;;;;5146576;27;20039;-56
2022/04/12 06:10:38;;;;;;;16.33;10.55;;;26.30;85.80;;;;;;5146108;27;20311;-54
2022/04/12 06:13:04;;;;;;;14.30;10.40;;;26.30;86.20;;;;;;5146432;27;20023;-55
2022/04/12 06:15:31;;;;;;;14.10;9.98;;;26.30;86.20;;;;;;5145985;27;20029;-56
2022/04/12 06:17:57;;;;;;;13.15;10.30;;;26.30;86.20;;;;;;5146322;27;20031;-56
2022/04/12 06:20:24;;;;;;;14.00;10.23;;;26.30;86.30;;;;;;5146033;27;20078;-55
2022/04/12 06:22:51;;;;;;;16.25;10.88;;;26.30;86.20;;;;;;5146376;27;20254;-53
2022/04/12 06:25:20;;;;;;;13.38;10.50;;;26.30;86.20;;;;;;5145977;27;20219;-54
2022/04/12 06:27:51;;;;;;;16.65;10.43;;;26.30;86.40;;;;;;5146020;27;20370;-55
2022/04/12 06:30:32;;;;;;;16.23;10.25;;;26.30;86.30;;;;;;5145728;27;20095;-54
2022/04/12 06:32:59;;;;;;;12.93;10.15;;;26.30;86.80;;;;;;5146141;27;20030;-56
2022/04/12 06:35:26;;;;;;;14.40;10.60;;;26.30;86.70;;;;;;5145727;27;20051;-53
2022/04/12 06:37:56;;;;;;;20.88;10.35;;;26.30;86.80;;;;;;5145376;27;20069;-56
2022/04/12 06:40:24;;;;;;;13.48;10.38;;;26.30;86.80;;;;;;5145587;27;20116;-56
2022/04/12 06:42:51;;;;;;;13.20;10.63;;;26.30;86.90;;;;;;5146087;27;20365;-54
2022/04/12 06:45:18;;;;;;;11.90;10.40;;;26.30;86.50;;;;;;5145537;27;20027;-54
2022/04/12 06:47:51;;;;;;;13.75;10.10;;;26.30;86.90;;;;;;5145856;27;20019;-56
2022/04/12 06:50:18;;;;;;;17.48;10.60;;;26.30;87.00;;;;;;5145152;27;20051;-55
2022/04/12 06:52:45;;;;;;;18.05;10.13;;;26.30;86.80;;;;;;5145409;27;20050;-53
2022/04/12 06:55:12;;;;;;;17.60;10.60;;;26.30;86.90;;;;;;5145447;27;20072;-52
2022/04/12 06:57:38;;;;;;;13.77;10.43;;;26.30;86.80;;;;;;5145554;27;20068;-60
2022/04/12 07:00:07;;;;;;;12.75;10.35;;;26.30;86.80;;;;;;5145123;27;20033;-54
2022/04/12 07:02:34;;;;;;;15.13;9.95;;;26.30;86.90;;;;;;5145454;27;20019;-54
2022/04/12 07:05:02;;;;;;;15.55;10.52;;;26.30;86.70;;;;;;5145322;27;20015;-59
2022/04/12 07:07:29;;;;;;;14.68;9.95;;;26.30;86.40;;;;;;5145254;27;20050;-53
2022/04/12 07:09:56;;;;;;;12.73;9.93;;;26.30;86.80;;;;;;5145181;27;20082;-53
2022/04/12 07:12:24;;;;;;;12.63;9.65;;;26.30;86.70;;;;;;5145406;27;20019;-54
2022/04/12 07:14:51;;;;;;;14.23;9.52;;;26.30;86.80;;;;;;5144966;27;20084;-56
2022/04/12 07:17:18;;;;;;;12.70;9.70;;;26.30;86.90;;;;;;5145197;27;20015;-54
2022/04/12 07:19:45;;;;;;;15.63;9.68;;;26.30;86.80;;;;;;5145308;27;20027;-56
2022/04/12 07:22:11;;;;;;;16.17;10.98;;;26.30;87.00;;;;;;5145019;27;20031;-55
2022/04/12 07:24:38;;;;;;;15.55;10.43;;;26.30;87.00;;;;;;5145053;27;20014;-54
2022/04/12 07:27:05;;;;;;;12.32;9.80;;;26.30;86.80;;;;;;5145201;27;20031;-56
2022/04/12 07:29:31;;;;;;;12.40;10.00;;;26.40;86.60;;;;;;5144791;28;20025;-54
2022/04/12 07:31:58;;;;;;;14.90;9.55;;;26.30;86.40;;;;;;5144948;28;20303;-54
2022/04/12 07:34:25;;;;;;;10.43;9.30;;;26.30;86.10;;;;;;5144982;28;20304;-53
2022/04/12 07:36:53;;;;;;;11.27;9.30;;;26.40;85.80;;;;;;5144877;28;20095;-53
2022/04/12 07:39:24;;;;;;;12.00;9.88;;;26.40;85.90;;;;;;5144748;28;20019;-49
2022/04/12 07:41:51;;;;;;;11.90;9.60;;;26.40;85.80;;;;;;5144878;28;20372;-52
2022/04/12 07:44:20;;;;;;;13.85;10.25;;;26.40;85.70;;;;;;5144553;28;20054;-51
2022/04/12 07:46:47;;;;;;;13.18;10.00;;;26.40;85.50;;;;;;5144809;28;20027;-51
2022/04/12 07:49:14;;;;;;;13.32;9.43;;;26.40;85.40;;;;;;5144726;28;20320;-51
2022/04/12 07:51:41;;;;;;;12.05;9.65;;;26.40;85.40;;;;;;5144628;28;20031;-53
2022/04/12 07:54:08;;;;;;;15.55;9.82;;;26.40;85.20;;;;;;5144533;28;20058;-57
2022/04/12 07:56:35;;;;;;;15.05;9.63;;;26.40;85.00;;;;;;5144722;28;20031;-54
2022/04/12 07:59:03;;;;;;;18.25;10.02;;;26.40;84.90;;;;;;5144598;28;20023;-55
2022/04/12 08:01:30;;;;;;;13.07;9.93;;;26.40;85.20;;;;;;5146740;27;20019;-52
2022/04/12 08:03:56;;;;;;;14.13;10.77;;;26.40;85.30;;;;;;5148839;27;20034;-50
2022/04/12 08:06:23;;;;;;;14.32;10.02;;;26.40;85.30;;;;;;5148539;27;20246;-54
2022/04/12 08:08:50;;;;;;;18.15;10.48;;;26.40;85.50;;;;;;5148803;27;20272;-53
2022/04/12 08:11:16;;;;;;;12.45;9.98;;;26.30;85.10;;;;;;5148421;27;20023;-51
2022/04/12 08:13:44;;;;;;;12.68;9.65;;;26.40;85.20;;;;;;5148401;27;20019;-52
2022/04/12 08:16:11;;;;;;;16.88;9.50;;;26.30;85.00;;;;;;5148406;27;20015;-54
2022/04/12 08:18:37;;;;;;;13.43;9.88;;;26.30;85.10;;;;;;5148802;27;20031;-55
2022/04/12 08:21:04;;;;;;;14.98;10.07;;;26.40;85.00;;;;;;5148250;27;20022;-53
2022/04/12 08:23:30;;;;;;;17.08;9.88;;;26.40;84.90;;;;;;5148252;27;20219;-53
2022/04/12 08:25:57;;;;;;;16.85;10.40;;;26.40;85.00;;;;;;5148320;27;20031;-53
2022/04/12 08:28:24;;;;;;;13.00;10.07;;;26.40;84.70;;;;;;5148396;27;20070;-54
2022/04/12 08:30:50;;;;;;;14.68;9.82;;;26.40;84.80;;;;;;5148234;27;20011;-53
2022/04/12 08:33:17;;;;;;;12.95;9.82;;;26.40;84.40;;;;;;5148578;27;20023;-51
2022/04/12 08:35:44;;;;;;;12.40;10.23;;;26.30;84.60;;;;;;5148020;27;20023;-54
2022/04/12 08:38:11;;;;;;;12.65;10.20;;;26.30;84.50;;;;;;5148424;27;20026;-51
2022/04/12 08:40:39;;;;;;;12.38;10.13;;;26.30;84.50;;;;;;5148036;27;20038;-52
2022/04/12 08:43:07;;;;;;;12.68;10.35;;;26.30;84.70;;;;;;5148272;27;20027;-53
2022/04/12 08:45:37;;;;;;;14.70;10.05;;;26.40;84.80;;;;;;5147898;27;20268;-55
2022/04/12 08:48:06;;;;;;;18.83;10.50;;;26.40;84.30;;;;;;5148171;27;20035;-56
2022/04/12 08:50:34;;;;;;;13.10;10.27;;;26.30;84.50;;;;;;5147704;27;20043;-51
2022/04/12 08:53:02;;;;;;;13.50;10.57;;;26.40;84.80;;;;;;5148009;27;20015;-52
2022/04/12 08:55:29;;;;;;;13.68;10.32;;;26.30;84.90;;;;;;5147593;27;20087;-53
2022/04/12 08:57:55;;;;;;;17.02;10.70;;;26.30;85.00;;;;;;5147909;27;20034;-50
2022/04/12 09:00:22;;;;;;;14.27;10.57;;;26.30;84.90;;;;;;5147672;27;20051;-50
2022/04/12 09:02:59;;;;;;;13.77;11.45;;;26.30;85.20;;;;;;5147806;27;20030;-54
2022/04/12 09:05:27;;;;;;;16.50;10.88;;;26.30;85.00;;;;;;5147428;27;20253;-52
2022/04/12 09:07:54;;;;;;;13.18;10.75;;;26.30;85.10;;;;;;5147283;27;20031;-53
2022/04/12 09:10:25;;;;;;;16.75;11.40;;;26.30;85.40;;;;;;5147339;27;20019;-55
2022/04/12 09:12:52;;;;;;;18.45;11.18;;;26.20;85.80;;;;;;5147520;27;20034;-54
2022/04/12 09:15:23;;;;;;;14.20;10.52;;;26.30;85.90;;;;;;5147279;27;20051;-51
2022/04/12 09:17:49;;;;;;;12.75;10.52;;;26.30;85.60;;;;;;5147403;27;20023;-53
2022/04/12 09:20:21;;;;;;;15.02;10.50;;;26.30;85.20;;;;;;5147226;27;20120;-54
2022/04/12 09:22:48;;;;;;;12.68;10.85;;;26.30;85.20;;;;;;5147593;27;20052;-52
2022/04/12 09:25:16;;;;;;;18.73;11.43;;;26.30;85.20;;;;;;5147251;27;20203;-53
2022/04/12 09:27:47;;;;;;;13.05;10.88;;;26.30;85.30;;;;;;5147260;27;20196;-54
2022/04/12 09:30:15;;;;;;;14.30;11.35;;;26.30;85.10;;;;;;5147096;27;20144;-51
2022/04/12 09:32:50;;;;;;;13.20;10.45;;;26.30;85.10;;;;;;5147067;27;20023;-53
2022/04/12 09:35:17;;;;;;;14.77;10.68;;;26.30;85.00;;;;;;5146783;27;20019;-53
2022/04/12 09:37:46;;;;;;;22.67;11.40;;;26.30;85.30;;;;;;5147068;27;20027;-56
2022/04/12 09:40:17;;;;;;;14.55;10.40;;;26.30;85.20;;;;;;5146824;27;20096;-53
2022/04/12 09:42:52;;;;;;;16.53;10.97;;;26.30;85.50;;;;;;5147162;27;20094;-50
2022/04/12 09:45:25;;;;;;;16.10;11.00;;;26.30;85.50;;;;;;5146578;27;20246;-50
2022/04/12 09:47:53;;;;;;;16.02;11.32;;;26.30;85.60;;;;;;5147023;27;20342;-54
2022/04/12 09:50:21;;;;;;;14.32;10.63;;;26.30;84.80;;;;;;5146694;27;20311;-56
2022/04/12 09:53:00;;;;;;;13.55;9.80;;;26.30;85.30;;;;;;5146821;27;20023;-54
2022/04/12 09:55:45;;;;;;;13.90;10.82;;;26.30;85.60;;;;;;5146554;27;20022;-51
2022/04/12 09:58:16;;;;;;;13.45;10.70;;;26.30;85.60;;;;;;5146979;27;20022;-52
2022/04/12 10:00:47;;;;;;;13.07;10.25;;;26.30;85.80;;;;;;5146582;27;20035;-52
2022/04/12 10:03:17;;;;;;;13.80;10.70;;;26.30;85.50;;;;;;5146700;27;20062;-51
2022/04/12 10:05:45;;;;;;;14.55;10.57;;;26.30;86.10;;;;;;5146530;27;20039;-52
2022/04/12 10:08:13;;;;;;;16.40;10.48;;;26.30;86.40;;;;;;5146675;27;20023;-53
2022/04/12 10:10:44;;;;;;;16.83;10.93;;;26.30;86.00;;;;;;5146158;27;20015;-53
2022/04/12 10:13:13;;;;;;;13.82;10.70;;;26.30;86.50;;;;;;5146670;27;20307;-52
2022/04/12 10:15:40;;;;;;;18.08;10.88;;;26.30;86.90;;;;;;5145891;27;20019;-50
2022/04/12 10:18:07;;;;;;;17.52;11.20;;;26.20;87.00;;;;;;5146455;27;20027;-52
2022/04/12 10:20:33;;;;;;;18.70;10.45;;;26.20;86.70;;;;;;5145963;27;20035;-52
2022/04/12 10:23:02;;;;;;;15.50;10.80;;;26.20;86.50;;;;;;5145909;27;20201;-51
2022/04/12 10:25:29;;;;;;;14.70;10.65;;;26.20;86.60;;;;;;5145820;27;20047;-54
2022/04/12 10:28:03;;;;;;;16.92;10.98;;;26.20;86.40;;;;;;5146069;27;20076;-52
2022/04/12 10:30:31;;;;;;;16.90;10.73;;;26.20;86.60;;;;;;5145672;27;20031;-54
2022/04/12 10:33:02;;;;;;;19.08;10.65;;;26.20;86.70;;;;;;5146174;27;20031;-53
2022/04/12 10:35:31;;;;;;;15.68;10.90;;;26.20;87.10;;;;;;5145797;27;20019;-55
2022/04/12 10:37:58;;;;;;;16.48;11.60;;;26.20;87.10;;;;;;5145856;27;20027;-52
2022/04/12 10:40:26;;;;;;;14.85;10.90;;;26.10;87.30;;;;;;5145629;27;20086;-50
2022/04/12 10:42:55;;;;;;;15.07;10.52;;;26.10;87.10;;;;;;5145930;27;20071;-54
2022/04/12 10:45:33;;;;;;;15.73;10.43;;;26.10;87.30;;;;;;5145536;27;20030;-50
2022/04/12 10:48:03;;;;;;;13.55;10.85;;;26.10;87.50;;;;;;5145855;27;20051;-53
2022/04/12 10:50:42;;;;;;;13.23;10.60;;;26.10;87.70;;;;;;5145374;27;20046;-51
2022/04/12 10:53:09;;;;;;;16.40;11.52;;;26.10;87.40;;;;;;5145299;27;20231;-53
2022/04/12 10:55:41;;;;;;;15.82;11.35;;;26.00;88.10;;;;;;5145428;27;20027;-54
2022/04/12 10:58:13;;;;;;;18.60;11.55;;;26.10;87.80;;;;;;5145825;27;20060;-54
2022/04/12 11:00:45;;;;;;;15.02;11.07;;;26.10;87.70;;;;;;5145365;27;20031;-57
2022/04/12 11:03:12;;;;;;;14.57;11.27;;;26.10;87.70;;;;;;5145510;27;20034;-53
2022/04/12 11:05:42;;;;;;;17.10;11.63;;;26.10;87.80;;;;;;5145457;27;20031;-54
2022/04/12 11:08:14;;;;;;;15.95;12.40;;;26.10;88.10;;;;;;5145537;27;20058;-54
2022/04/12 11:10:55;;;;;;;17.83;12.77;;;26.10;88.20;;;;;;5145142;27;20042;-55
2022/04/12 11:13:23;;;;;;;18.55;12.77;;;26.10;88.30;;;;;;5145679;27;20027;-53
2022/04/12 11:15:57;;;;;;;17.08;12.15;;;26.10;88.70;;;;;;5144911;27;20030;-54
2022/04/12 11:18:24;;;;;;;22.08;12.88;;;26.10;88.80;;;;;;5145556;27;20300;-53
2022/04/12 11:21:02;;;;;;;21.50;13.02;;;26.10;89.00;;;;;;5145089;27;20311;-55
2022/04/12 11:24:09;;;;;;;20.80;13.23;;;26.20;89.00;;;;;;5145502;27;20061;-55
2022/04/12 11:26:46;;;;;;;19.48;13.35;;;26.20;89.00;;;;;;5041926;28;20145;-54
2022/04/12 11:29:17;;;;;;;19.45;12.93;;;26.20;89.50;;;;;;5135878;28;20039;-54
2022/04/12 11:31:48;;;;;;;21.00;14.23;;;26.30;89.50;;;;;;5144971;28;20034;-53
2022/04/12 11:34:15;;;;;;;23.48;16.67;;;26.30;89.50;;;;;;5145022;28;20245;-54
2022/04/12 11:36:50;;;;;;;21.48;15.85;;;26.30;89.80;;;;;;5147404;27;20092;-54
2022/04/12 11:39:25;;;;;;;22.55;16.25;;;26.40;89.90;;;;;;5149153;27;20034;-55
2022/04/12 11:42:01;;;;;;;18.40;16.25;;;26.40;89.70;;;;;;5149227;27;20027;-56
2022/04/12 11:44:28;;;;;;;18.85;15.85;;;26.40;89.80;;;;;;5149135;27;20098;-55
2022/04/12 11:46:56;;;;;;;21.08;15.45;;;26.50;89.90;;;;;;5149156;27;20050;-53
2022/04/12 11:49:31;;;;;;;23.90;16.05;;;26.50;89.80;;;;;;5148857;27;20023;-53
2022/04/12 11:52:03;;;;;;;19.70;15.50;;;26.50;89.70;;;;;;5148996;27;20027;-52
2022/04/12 11:54:32;;;;;;;23.60;15.52;;;26.50;89.90;;;;;;5148757;27;20035;-53
2022/04/12 11:57:05;;;;;;;19.23;14.88;;;26.50;90.00;;;;;;5148792;27;20312;-52
2022/04/12 11:59:45;;;;;;;20.65;14.95;;;26.60;89.90;;;;;;5148750;27;20015;-54
2022/04/12 12:02:13;;;;;;;23.52;14.70;;;26.60;90.00;;;;;;5148779;27;20068;-54
2022/04/12 12:05:11;;;;;;;24.17;15.07;;;26.50;89.90;;;;;;5148655;27;20019;-53
2022/04/12 12:07:38;;;;;;;20.75;14.65;;;26.60;89.80;;;;;;5128702;27;20079;-55
2022/04/12 12:10:16;;;;;;;18.48;14.65;;;26.60;89.80;;;;;;5148508;27;20019;-56
2022/04/12 12:12:47;;;;;;;16.05;13.30;;;26.60;89.70;;;;;;5148803;27;20106;-55
2022/04/12 12:15:27;;;;;;;19.98;14.85;;;26.60;89.70;;;;;;5148433;27;20245;-54
2022/04/12 12:18:06;;;;;;;18.33;14.35;;;26.60;89.70;;;;;;5148616;27;20295;-55
2022/04/12 12:20:38;;;;;;;19.83;14.98;;;26.60;89.70;;;;;;5148317;27;20307;-53
2022/04/12 12:23:07;;;;;;;21.27;14.43;;;26.60;89.70;;;;;;5148162;27;20246;-53
2022/04/12 12:25:54;;;;;;;18.85;14.20;;;26.60;89.80;;;;;;5148360;27;20048;-54
2022/04/12 12:28:26;;;;;;;20.45;14.07;;;26.60;90.00;;;;;;5148468;27;20035;-53
2022/04/12 12:31:00;;;;;;;16.33;14.32;;;26.60;89.90;;;;;;5148353;27;20043;-54
2022/04/12 12:33:47;;;;;;;19.92;14.68;;;26.60;89.90;;;;;;5148927;27;20365;-53
2022/04/12 12:36:22;;;;;;;23.60;15.13;;;26.60;90.00;;;;;;5148027;27;20303;-57